createdAt,value
2022-12-05T00:01:43.162Z,99854.78
2022-12-05T00:04:45.487Z,99862.00
2022-12-05T00:07:48.028Z,99857.63
2022-12-05T00:10:50.279Z,99859.44
2022-12-05T00:13:53.866Z,99852.59
2022-12-05T00:16:56.091Z,99861.34
2022-12-05T00:19:58.818Z,99862.00
2022-12-05T00:23:01.226Z,99864.78
2022-12-05T00:26:04.645Z,99869.44
2022-12-05T00:29:06.825Z,99861.78
2022-12-05T00:32:09.068Z,99854.47
2022-12-05T00:35:11.254Z,99857.63
2022-12-05T00:38:13.403Z,99850.44
2022-12-05T00:41:19.007Z,99860.88
2022-12-05T00:44:21.508Z,99844.47
2022-12-05T00:47:23.646Z,99857.94
2022-12-05T00:50:25.765Z,99860.03
2022-12-05T00:53:27.935Z,99856.13
2022-12-05T00:56:31.305Z,99857.50
2022-12-05T00:59:33.481Z,99855.25
2022-12-05T01:02:35.657Z,99853.06
2022-12-05T01:05:37.850Z,99850.13
2022-12-05T01:08:40.424Z,99848.06
2022-12-05T01:11:43.048Z,99839.81
2022-12-05T01:14:45.240Z,99847.94
2022-12-05T01:17:47.406Z,99840.72
2022-12-05T01:20:50.403Z,99828.72
2022-12-05T01:23:52.851Z,99826.91
2022-12-05T01:26:55.402Z,99836.22
2022-12-05T01:29:58.154Z,99826.06
2022-12-05T01:33:00.490Z,99837.06
2022-12-05T01:36:03.862Z,99835.94
2022-12-05T01:39:07.857Z,99831.13
2022-12-05T01:42:11.901Z,99825.03
2022-12-05T01:45:16.811Z,99831.50
2022-12-05T01:48:22.043Z,99827.50
2022-12-05T01:51:24.581Z,99826.44
2022-12-05T01:54:27.061Z,99820.13
2022-12-05T01:57:29.263Z,99820.13
2022-12-05T02:00:31.436Z,99820.28
2022-12-05T02:03:33.785Z,99815.47
2022-12-05T02:06:36.568Z,99814.72
2022-12-05T02:09:38.739Z,99815.69
2022-12-05T02:12:41.976Z,99817.81
2022-12-05T02:15:55.411Z,99817.44
2022-12-05T02:19:04.912Z,99811.34
2022-12-05T02:23:05.683Z,99812.69
2022-12-05T02:26:10.330Z,99822.16
2022-12-05T02:29:12.375Z,99833.44
2022-12-05T02:32:46.520Z,99827.28
2022-12-05T02:36:23.270Z,99823.28
2022-12-05T02:39:31.284Z,99829.59
2022-12-05T02:42:43.150Z,99829.16
2022-12-05T02:45:48.766Z,99829.66
2022-12-05T02:48:56.188Z,99836.88
2022-12-05T02:52:00.235Z,99836.06
2022-12-05T02:55:03.091Z,99841.91
2022-12-05T02:58:08.837Z,99842.97
2022-12-05T03:01:11.115Z,99836.50
2022-12-05T03:04:14.515Z,99839.97
2022-12-05T03:07:17.831Z,99838.69
2022-12-05T03:10:23.466Z,99832.75
2022-12-05T03:13:28.466Z,99838.75
2022-12-05T03:16:46.905Z,99839.81
2022-12-05T03:20:14.269Z,99848.09
2022-12-05T03:23:23.547Z,99851.53
2022-12-05T03:26:34.811Z,99849.50
2022-12-05T03:29:48.124Z,99861.22
2022-12-05T03:32:55.301Z,99857.47
2022-12-05T03:36:12.568Z,99867.31
2022-12-05T03:39:27.951Z,99849.22
2022-12-05T03:42:34.018Z,99853.72
2022-12-05T03:45:49.990Z,99854.25
2022-12-05T03:49:11.003Z,99851.38
2022-12-05T03:52:19.098Z,99854.75
2022-12-05T03:55:23.858Z,99854.75
2022-12-05T03:58:33.482Z,99856.03
2022-12-05T04:01:36.282Z,99859.56
2022-12-05T04:04:44.698Z,99857.31
2022-12-05T04:07:50.222Z,99853.41
2022-12-05T04:10:55.484Z,99858.75
2022-12-05T04:14:38.168Z,99852.47
2022-12-05T04:17:53.209Z,99852.09
2022-12-05T04:21:15.747Z,99857.75
2022-12-05T04:24:46.085Z,99850.44
2022-12-05T04:28:26.894Z,99842.66
2022-12-05T04:31:35.894Z,99841.59
2022-12-05T04:34:38.889Z,99845.19
2022-12-05T04:37:43.032Z,99844.34
2022-12-05T04:40:54.301Z,99849.78
2022-12-05T04:43:59.066Z,99849.97
2022-12-05T04:47:04.219Z,99848.31
2022-12-05T04:50:08.495Z,99852.44
2022-12-05T04:53:11.327Z,99849.59
2022-12-05T04:56:16.632Z,99847.47
2022-12-05T04:59:18.955Z,99851.66
2022-12-05T05:03:01.592Z,99848.75
2022-12-05T05:06:04.270Z,99853.19
2022-12-05T05:09:06.571Z,99847.94
2022-12-05T05:12:09.405Z,99844.19
2022-12-05T05:15:12.725Z,99847.81
2022-12-05T05:18:14.936Z,99850.56
2022-12-05T05:21:34.897Z,99850.97
2022-12-05T05:24:36.992Z,99852.25
2022-12-05T05:27:39.134Z,99843.97
2022-12-05T05:30:41.289Z,99837.00
2022-12-05T05:33:43.537Z,99832.44
2022-12-05T05:36:45.698Z,99838.78
2022-12-05T05:39:47.872Z,99842.69
2022-12-05T05:42:51.085Z,99852.62
2022-12-05T05:45:53.241Z,99849.44
2022-12-05T05:48:55.746Z,99853.72
2022-12-05T05:51:57.877Z,99859.91
2022-12-05T05:55:00.403Z,99855.81
2022-12-05T05:58:02.526Z,99852.22
2022-12-05T06:01:09.652Z,99852.97
2022-12-05T06:04:11.859Z,99858.06
2022-12-05T06:07:14.088Z,99853.03
2022-12-05T06:10:16.319Z,99870.84
2022-12-05T06:13:18.491Z,99869.78
2022-12-05T06:16:21.342Z,99868.81
2022-12-05T06:19:23.632Z,99876.41
2022-12-05T06:22:25.813Z,99880.41
2022-12-05T06:25:28.068Z,99873.63
2022-12-05T06:28:30.831Z,99869.19
2022-12-05T06:31:34.049Z,99882.19
2022-12-05T06:34:36.680Z,99883.91
2022-12-05T06:37:38.925Z,99894.59
2022-12-05T06:40:42.681Z,99892.34
2022-12-05T06:43:45.396Z,99897.91
2022-12-05T06:46:48.684Z,99890.75
2022-12-05T06:49:50.821Z,99893.47
2022-12-05T06:52:53.080Z,99889.94
2022-12-05T06:55:59.906Z,99895.41
2022-12-05T06:59:02.086Z,99897.06
2022-12-05T07:02:07.722Z,99905.19
2022-12-05T07:05:10.806Z,99894.97
2022-12-05T07:08:13.008Z,99897.44
2022-12-05T07:11:15.319Z,99904.22
2022-12-05T07:14:46.318Z,99903.78
2022-12-05T07:17:40.190Z,99912.22
2022-12-05T07:21:10.696Z,99911.09
2022-12-05T07:24:05.588Z,99922.13
2022-12-05T07:27:07.809Z,99924.75
2022-12-05T07:30:10.213Z,99928.06
2022-12-05T07:33:12.370Z,99927.53
2022-12-05T07:36:18.125Z,99926.56
2022-12-05T07:39:20.369Z,99925.75
2022-12-05T07:42:22.514Z,99918.91
2022-12-05T07:45:24.637Z,99918.38
2022-12-05T07:48:27.112Z,99929.03
2022-12-05T07:51:29.347Z,99926.88
2022-12-05T07:54:31.493Z,99927.63
2022-12-05T07:57:33.678Z,99932.97
2022-12-05T08:00:36.971Z,99942.44
2022-12-05T08:03:39.190Z,99936.16
2022-12-05T08:06:41.363Z,99944.47
2022-12-05T08:09:43.501Z,99954.03
2022-12-05T08:12:45.634Z,99955.97
2022-12-05T08:15:47.807Z,99945.53
2022-12-05T08:18:54.645Z,99954.56
2022-12-05T08:21:56.783Z,99948.94
2022-12-05T08:24:59.409Z,99949.06
2022-12-05T08:28:01.619Z,99954.41
2022-12-05T08:31:13.157Z,99964.03
2022-12-05T08:34:16.872Z,99956.44
2022-12-05T08:37:19.085Z,99962.37
2022-12-05T08:40:21.285Z,99953.66
2022-12-05T08:43:23.460Z,99958.53
2022-12-05T08:46:26.148Z,99958.59
2022-12-05T08:49:28.473Z,99951.16
2022-12-05T08:52:30.634Z,99964.50
2022-12-05T08:55:34.980Z,99961.19
2022-12-05T08:58:37.700Z,99959.16
2022-12-05T09:01:40.603Z,99949.72
2022-12-05T09:04:42.936Z,99949.56
2022-12-05T09:07:45.429Z,99956.22
2022-12-05T09:10:47.638Z,99952.59
2022-12-05T09:13:50.559Z,99947.25
2022-12-05T09:16:52.748Z,99944.03
2022-12-05T09:19:54.894Z,99956.22
2022-12-05T09:22:57.075Z,99949.91
2022-12-05T09:26:02.131Z,99950.06
2022-12-05T09:29:04.275Z,99948.63
2022-12-05T09:32:06.805Z,99945.56
2022-12-05T09:35:09.172Z,99949.75
2022-12-05T09:38:11.333Z,99943.06
2022-12-05T09:41:44.554Z,99932.97
2022-12-05T09:44:52.727Z,99923.69
2022-12-05T09:47:59.490Z,99931.63
2022-12-05T09:51:03.620Z,99933.44
2022-12-05T09:54:05.918Z,99926.06
2022-12-05T09:57:09.662Z,99924.25
2022-12-05T10:00:12.533Z,99927.69
2022-12-05T10:03:38.264Z,99923.09
2022-12-05T10:06:58.923Z,99927.31
2022-12-05T10:10:20.544Z,99924.50
2022-12-05T10:13:54.304Z,99924.25
2022-12-05T10:16:59.536Z,99919.56
2022-12-05T10:20:20.178Z,99908.75
2022-12-05T10:23:55.474Z,99914.22
2022-12-05T10:26:53.741Z,99916.19
2022-12-05T10:30:15.890Z,99916.59
2022-12-05T10:33:22.069Z,99925.06
2022-12-05T10:36:25.149Z,99913.38
2022-12-05T10:39:27.736Z,99911.56
2022-12-05T10:42:32.443Z,99896.53
2022-12-05T10:45:40.336Z,99894.84
2022-12-05T10:48:42.952Z,99900.09
2022-12-05T10:51:45.261Z,99899.84
2022-12-05T10:55:00.941Z,99887.75
2022-12-05T10:58:29.768Z,99876.72
2022-12-05T11:01:32.157Z,99866.72
2022-12-05T11:04:44.645Z,99861.63
2022-12-05T11:07:51.131Z,99862.03
2022-12-05T11:11:20.140Z,99859.25
2022-12-05T11:14:24.918Z,99856.47
2022-12-05T11:17:38.190Z,99850.81
2022-12-05T11:20:40.601Z,99859.09
2022-12-05T11:23:42.794Z,99859.00
2022-12-05T11:26:45.791Z,99868.56
2022-12-05T11:30:00.709Z,99861.97
2022-12-05T11:33:20.316Z,99850.66
2022-12-05T11:36:24.405Z,99845.50
2022-12-05T11:39:26.659Z,99849.06
2022-12-05T11:42:54.977Z,99841.31
2022-12-05T11:46:16.606Z,99830.16
2022-12-05T11:49:41.498Z,99837.69
2022-12-05T11:52:49.575Z,99843.94
2022-12-05T11:56:11.915Z,99846.72
2022-12-05T11:59:40.503Z,99833.47
2022-12-05T12:02:54.702Z,99830.69
2022-12-05T12:06:01.028Z,99826.28
2022-12-05T12:09:39.059Z,99832.38
2022-12-05T12:12:50.068Z,99824.97
2022-12-05T12:16:09.969Z,99809.09
2022-12-05T12:19:45.639Z,99812.75
2022-12-05T12:23:06.527Z,99810.63
2022-12-05T12:26:08.644Z,99805.13
2022-12-05T12:29:25.854Z,99800.03
2022-12-05T12:32:44.607Z,99804.22
2022-12-05T12:36:24.267Z,99788.41
2022-12-05T12:39:51.545Z,99797.13
2022-12-05T12:42:59.863Z,99799.62
2022-12-05T12:46:20.698Z,99793.69
2022-12-05T12:49:42.689Z,99795.31
2022-12-05T12:52:47.549Z,99787.59
2022-12-05T12:56:26.508Z,99780.87
2022-12-05T12:59:43.627Z,99780.66
2022-12-05T13:02:51.577Z,99781.00
2022-12-05T13:05:58.557Z,99774.56
2022-12-05T13:09:19.950Z,99781.31
2022-12-05T13:12:26.708Z,99784.34
2022-12-05T13:15:36.099Z,99793.84
2022-12-05T13:18:38.466Z,99799.94
2022-12-05T13:21:40.765Z,99782.81
2022-12-05T13:24:42.934Z,99782.84
2022-12-05T13:27:57.536Z,99776.22
2022-12-05T13:31:02.555Z,99777.41
2022-12-05T13:34:04.991Z,99770.66
2022-12-05T13:37:31.296Z,99762.13
2022-12-05T13:40:53.512Z,99766.06
2022-12-05T13:44:05.889Z,99769.69
2022-12-05T13:47:33.132Z,99765.75
2022-12-05T13:50:55.085Z,99768.88
2022-12-05T13:54:01.595Z,99766.56
2022-12-05T13:57:05.079Z,99754.50
2022-12-05T14:00:10.402Z,99756.50
2022-12-05T14:03:38.553Z,99764.84
2022-12-05T14:06:52.860Z,99771.78
2022-12-05T14:09:55.273Z,99775.97
2022-12-05T14:13:23.779Z,99786.97
2022-12-05T14:16:26.016Z,99780.06
2022-12-05T14:19:37.726Z,99763.56
2022-12-05T14:22:58.609Z,99775.31
2022-12-05T14:26:18.955Z,99770.03
2022-12-05T14:29:54.701Z,99775.50
2022-12-05T14:33:01.001Z,99779.56
2022-12-05T14:36:08.304Z,99789.63
2022-12-05T14:39:40.373Z,99774.94
2022-12-05T14:42:44.468Z,99770.78
2022-12-05T14:45:55.445Z,99766.88
2022-12-05T14:48:57.947Z,99766.91
2022-12-05T14:52:00.240Z,99754.19
2022-12-05T14:55:07.199Z,99750.22
2022-12-05T14:58:17.839Z,99750.69
2022-12-05T15:01:27.902Z,99756.97
2022-12-05T15:04:51.355Z,99764.06
2022-12-05T15:07:54.332Z,99760.59
2022-12-05T15:10:56.668Z,99750.41
2022-12-05T15:14:08.915Z,99749.59
2022-12-05T15:17:16.587Z,99752.53
2022-12-05T15:20:42.165Z,99755.19
2022-12-05T15:23:48.255Z,99752.75
2022-12-05T15:26:55.414Z,99751.41
2022-12-05T15:29:57.564Z,99748.13
2022-12-05T15:33:00.052Z,99744.84
2022-12-05T15:36:02.498Z,99749.44
2022-12-05T15:39:28.381Z,99747.94
2022-12-05T15:42:51.602Z,99754.38
2022-12-05T15:46:09.750Z,99755.03
2022-12-05T15:49:23.416Z,99744.31
2022-12-05T15:52:29.595Z,99739.72
2022-12-05T15:55:40.942Z,99741.66
2022-12-05T15:58:50.992Z,99740.53
2022-12-05T16:01:59.810Z,99726.84
2022-12-05T16:05:44.966Z,99715.94
2022-12-05T16:08:48.146Z,99714.47
2022-12-05T16:11:58.302Z,99723.69
2022-12-05T16:15:03.916Z,99717.06
2022-12-05T16:18:07.115Z,99722.84
2022-12-05T16:21:31.905Z,99720.38
2022-12-05T16:24:45.611Z,99722.53
2022-12-05T16:28:16.834Z,99714.94
2022-12-05T16:31:19.100Z,99718.56
2022-12-05T16:34:21.569Z,99724.66
2022-12-05T16:37:26.727Z,99716.75
2022-12-05T16:40:28.882Z,99714.31
2022-12-05T16:43:31.699Z,99718.59
2022-12-05T16:46:36.933Z,99720.88
2022-12-05T16:49:46.012Z,99721.56
2022-12-05T16:52:48.692Z,99724.03
2022-12-05T16:55:50.898Z,99730.12
2022-12-05T16:58:53.496Z,99728.84
2022-12-05T17:01:55.767Z,99721.91
2022-12-05T17:04:59.833Z,99714.47
2022-12-05T17:08:02.554Z,99731.75
2022-12-05T17:11:07.824Z,99735.06
2022-12-05T17:14:14.740Z,99735.06
2022-12-05T17:17:18.334Z,99735.09
2022-12-05T17:20:20.940Z,99737.91
2022-12-05T17:23:23.320Z,99735.41
2022-12-05T17:26:25.560Z,99727.97
2022-12-05T17:29:32.418Z,99715.31
2022-12-05T17:32:38.030Z,99722.03
2022-12-05T17:35:40.745Z,99719.06
2022-12-05T17:38:43.687Z,99717.13
2022-12-05T17:41:46.569Z,99716.63
2022-12-05T17:44:49.139Z,99707.69
2022-12-05T17:47:51.995Z,99699.78
2022-12-05T17:51:00.083Z,99696.81
2022-12-05T17:54:02.228Z,99688.09
2022-12-05T17:57:04.885Z,99671.94
2022-12-05T18:00:07.911Z,99671.59
2022-12-05T18:03:16.103Z,99674.56
2022-12-05T18:06:18.889Z,99683.78
2022-12-05T18:09:21.514Z,99675.84
2022-12-05T18:12:23.812Z,99674.56
2022-12-05T18:15:26.109Z,99679.66
2022-12-05T18:18:29.565Z,99683.09
2022-12-05T18:21:32.476Z,99686.25
2022-12-05T18:24:34.625Z,99689.56
2022-12-05T18:27:38.239Z,99684.28
2022-12-05T18:30:41.163Z,99684.47
2022-12-05T18:33:44.867Z,99676.19
2022-12-05T18:36:47.132Z,99673.91
2022-12-05T18:39:49.496Z,99677.22
2022-12-05T18:42:51.932Z,99671.25
2022-12-05T18:45:58.627Z,99661.72
2022-12-05T18:49:03.494Z,99665.31
2022-12-05T18:52:06.207Z,99666.66
2022-12-05T18:55:17.351Z,99658.75
2022-12-05T18:58:20.220Z,99662.53
2022-12-05T19:01:22.974Z,99667.81
2022-12-05T19:04:25.506Z,99665.66
2022-12-05T19:07:29.054Z,99669.44
2022-12-05T19:10:31.457Z,99657.41
2022-12-05T19:13:33.997Z,99651.34
2022-12-05T19:16:37.197Z,99653.16
2022-12-05T19:19:39.683Z,99667.50
2022-12-05T19:22:42.118Z,99656.25
2022-12-05T19:25:44.858Z,99658.56
2022-12-05T19:28:50.609Z,99663.84
2022-12-05T19:31:53.147Z,99659.06
2022-12-05T19:34:58.916Z,99664.69
2022-12-05T19:38:01.773Z,99665.19
2022-12-05T19:41:05.403Z,99660.56
2022-12-05T19:44:08.187Z,99654.78
2022-12-05T19:47:10.815Z,99654.12
2022-12-05T19:50:13.923Z,99649.03
2022-12-05T19:53:16.778Z,99651.81
2022-12-05T19:56:22.402Z,99644.72
2022-12-05T19:59:25.510Z,99641.59
2022-12-05T20:02:28.360Z,99632.69
2022-12-05T20:05:31.448Z,99630.38
2022-12-05T20:08:34.893Z,99627.09
2022-12-05T20:11:43.680Z,99617.84
2022-12-05T20:14:46.071Z,99619.16
2022-12-05T20:17:52.973Z,99619.50
2022-12-05T20:21:01.041Z,99625.44
2022-12-05T20:24:04.831Z,99615.38
2022-12-05T20:27:07.420Z,99626.59
2022-12-05T20:30:09.972Z,99627.09
2022-12-05T20:33:12.581Z,99621.47
2022-12-05T20:36:17.934Z,99625.63
2022-12-05T20:39:20.417Z,99627.09
2022-12-05T20:42:22.935Z,99636.81
2022-12-05T20:45:25.404Z,99635.16
2022-12-05T20:48:28.854Z,99633.66
2022-12-05T20:51:33.293Z,99624.94
2022-12-05T20:54:35.718Z,99628.91
2022-12-05T20:57:38.173Z,99619.81
2022-12-05T21:00:40.737Z,99626.94
2022-12-05T21:03:44.935Z,99617.19
2022-12-05T21:06:47.165Z,99614.22
2022-12-05T21:09:49.327Z,99609.75
2022-12-05T21:12:51.476Z,99613.88
2022-12-05T21:15:53.905Z,99614.72
2022-12-05T21:18:56.433Z,99606.31
2022-12-05T21:21:59.211Z,99596.59
2022-12-05T21:25:01.378Z,99595.94
2022-12-05T21:28:03.552Z,99586.22
2022-12-05T21:31:33.564Z,99573.19
2022-12-05T21:34:36.096Z,99574.84
2022-12-05T21:37:39.228Z,99570.38
2022-12-05T21:40:42.808Z,99576.81
2022-12-05T21:43:49.563Z,99576.97
2022-12-05T21:46:54.801Z,99576.66
2022-12-05T21:49:57.355Z,99568.75
2022-12-05T21:52:59.853Z,99576.00
2022-12-05T21:56:12.792Z,99562.16
2022-12-05T21:59:14.952Z,99567.56
2022-12-05T22:02:17.123Z,99566.25
2022-12-05T22:05:19.303Z,99563.94
2022-12-05T22:08:21.529Z,99573.16
2022-12-05T22:11:24.418Z,99565.09
2022-12-05T22:14:26.646Z,99560.50
2022-12-05T22:17:28.806Z,99550.94
2022-12-05T22:20:31.029Z,99560.16
2022-12-05T22:23:34.474Z,99541.22
2022-12-05T22:26:36.648Z,99540.22
2022-12-05T22:29:38.861Z,99545.34
2022-12-05T22:32:40.991Z,99542.69
2022-12-05T22:35:43.256Z,99539.69
2022-12-05T22:38:47.297Z,99541.03
2022-12-05T22:41:49.504Z,99539.69
2022-12-05T22:44:51.630Z,99541.38
2022-12-05T22:47:53.771Z,99535.59
2022-12-05T22:50:56.014Z,99534.97
2022-12-05T22:53:58.767Z,99533.12
2022-12-05T22:57:00.964Z,99522.41
2022-12-05T23:00:04.784Z,99527.19
2022-12-05T23:03:07.242Z,99524.56
2022-12-05T23:06:11.916Z,99515.19
2022-12-05T23:09:14.587Z,99501.16
2022-12-05T23:12:16.781Z,99498.87
2022-12-05T23:15:18.933Z,99502.16
2022-12-05T23:18:21.640Z,99501.16
2022-12-05T23:21:30.381Z,99488.63
2022-12-05T23:24:32.725Z,99486.47
2022-12-05T23:27:35.015Z,99497.53
2022-12-05T23:30:37.165Z,99509.25
2022-12-05T23:33:40.046Z,99508.72
2022-12-05T23:36:42.222Z,99505.75
2022-12-05T23:39:44.554Z,99486.00
2022-12-05T23:42:46.741Z,99479.41
2022-12-05T23:45:48.928Z,99474.09
2022-12-05T23:48:51.464Z,99466.41
2022-12-05T23:51:53.855Z,99465.56
2022-12-05T23:54:55.995Z,99465.56
2022-12-05T23:57:58.232Z,99457.97
